EFKE/KEM METAR and TAF weather

Enter ICAO airport designator
Station Type Date Time Source
EFKE METAR 2019/06/17 13:20 UTC NOAA

EFKE 171320Z 18002KT 9999 -SHRA FEW032 BKN090 15/12 Q1007


Station Type Date Time Source
EFKE Decoded METAR 2019/06/17 13:20 UTC NOAA

Kemi, Finland (EFKE) 65-47N 024-35E
Jun 17, 2019 - 09:20 AM EDT / 2019.06.17 1320 UTC
Wind: from the S (180 degrees) at 2 MPH (2 KT):0
Visibility: greater than 7 mile(s):0
Sky conditions: mostly cloudy
Weather: light rain showers
Temperature: 59 F (15 C)
Dew Point: 53 F (12 C)
Relative Humidity: 82%
Pressure (altimeter): 29.74 in. Hg (1007 hPa)
ob: EFKE 171320Z 18002KT 9999 -SHRA FEW032 BKN090 15/12 Q1007
cycle: 13

Station Type Date Time Source
EFKE TAF 2015/01/12 15:42 UTC NOAA

TAF EFKE 121433Z 1215/1312 03006KT CAVOK
BECMG 1300/1302 9999 BKN015
FM130400 07008KT 9999 SCT014 BKN018
TEMPO 1304/1312 7000 -SN

Example: see airport list